createdAt,value
2023-03-04T00:02:22.857Z,3.70
2023-03-04T00:04:50.323Z,3.70
2023-03-04T00:07:19.063Z,3.70
2023-03-04T00:09:46.478Z,3.70
2023-03-04T00:12:13.834Z,3.70
2023-03-04T00:14:40.997Z,3.70
2023-03-04T00:17:08.308Z,3.70
2023-03-04T00:19:35.395Z,3.70
2023-03-04T00:22:04.541Z,3.60
2023-03-04T00:24:31.814Z,3.70
2023-03-04T00:26:59.532Z,3.70
2023-03-04T00:29:26.707Z,3.70
2023-03-04T00:31:54.379Z,3.70
2023-03-04T00:34:21.515Z,3.70
2023-03-04T00:36:48.990Z,3.80
2023-03-04T00:39:17.190Z,3.80
2023-03-04T00:41:44.562Z,3.80
2023-03-04T00:44:11.182Z,3.80
2023-03-04T00:46:39.085Z,3.80
2023-03-04T00:49:05.734Z,3.70
2023-03-04T00:51:33.120Z,3.70
2023-03-04T00:54:00.997Z,3.70
2023-03-04T00:56:28.971Z,3.70
2023-03-04T00:58:55.984Z,3.80
2023-03-04T01:01:23.391Z,3.80
2023-03-04T01:03:51.350Z,3.80
2023-03-04T01:06:18.615Z,3.80
2023-03-04T01:08:45.247Z,3.80
2023-03-04T01:11:12.538Z,3.80
2023-03-04T01:13:39.626Z,3.80
2023-03-04T01:16:07.724Z,3.80
2023-03-04T01:18:34.450Z,3.80
2023-03-04T01:21:03.002Z,3.80
2023-03-04T01:23:29.619Z,3.80
2023-03-04T01:25:56.957Z,3.80
2023-03-04T01:28:25.109Z,3.80
2023-03-04T01:30:52.570Z,3.80
2023-03-04T01:33:19.184Z,3.80
2023-03-04T01:35:46.437Z,3.80
2023-03-04T01:38:13.114Z,3.80
2023-03-04T01:40:40.739Z,3.80
2023-03-04T01:43:07.498Z,3.80
2023-03-04T01:45:35.908Z,3.80
2023-03-04T01:48:02.661Z,3.90
2023-03-04T01:50:35.850Z,3.90
2023-03-04T01:53:03.264Z,3.90
2023-03-04T01:55:31.556Z,3.90
2023-03-04T01:57:58.338Z,3.80
2023-03-04T02:00:28.634Z,3.80
2023-03-04T02:03:02.042Z,3.90
2023-03-04T02:05:30.279Z,3.90
2023-03-04T02:07:58.191Z,3.90
2023-03-04T02:10:25.854Z,3.90
2023-03-04T02:12:52.874Z,3.90
2023-03-04T02:15:20.651Z,3.90
2023-03-04T02:17:47.374Z,3.90
2023-03-04T02:20:28.475Z,3.90
2023-03-04T02:23:11.513Z,3.90
2023-03-04T02:25:48.598Z,3.90
2023-03-04T02:28:15.732Z,3.90
2023-03-04T02:30:43.148Z,4.00
2023-03-04T02:33:18.451Z,4.00
2023-03-04T02:35:46.308Z,4.00
2023-03-04T02:38:13.235Z,4.10
2023-03-04T02:40:43.549Z,4.10
2023-03-04T02:43:11.889Z,4.10
2023-03-04T02:45:45.939Z,4.10
2023-03-04T02:48:14.084Z,4.10
2023-03-04T02:50:45.040Z,4.10
2023-03-04T02:53:11.950Z,4.10
2023-03-04T02:55:39.322Z,4.10
2023-03-04T02:58:06.752Z,4.00
2023-03-04T03:00:34.975Z,4.10
2023-03-04T03:03:05.308Z,4.00
2023-03-04T03:05:36.560Z,4.10
2023-03-04T03:08:06.657Z,4.20
2023-03-04T03:10:33.951Z,4.10
2023-03-04T03:13:02.028Z,4.20
2023-03-04T03:15:29.660Z,4.20
2023-03-04T03:17:56.619Z,4.10
2023-03-04T03:20:23.899Z,4.20
2023-03-04T03:22:50.633Z,4.20
2023-03-04T03:25:18.221Z,4.20
2023-03-04T03:27:45.804Z,4.20
2023-03-04T03:30:15.809Z,4.20
2023-03-04T03:32:42.444Z,4.20
2023-03-04T03:35:10.890Z,4.30
2023-03-04T03:37:37.663Z,4.20
2023-03-04T03:40:05.492Z,4.20
2023-03-04T03:42:32.094Z,4.20
2023-03-04T03:44:59.356Z,4.10
2023-03-04T03:47:26.049Z,4.10
2023-03-04T03:49:54.600Z,4.10
2023-03-04T03:52:21.251Z,4.10
2023-03-04T03:54:48.378Z,4.10
2023-03-04T03:57:15.022Z,4.10
2023-03-04T03:59:42.272Z,4.00
2023-03-04T04:02:09.114Z,4.00
2023-03-04T04:04:36.565Z,4.00
2023-03-04T04:07:03.212Z,4.10
2023-03-04T04:09:30.539Z,4.10
2023-03-04T04:11:57.169Z,4.10
2023-03-04T04:14:24.403Z,4.10
2023-03-04T04:16:51.109Z,4.10
2023-03-04T04:19:19.861Z,4.10
2023-03-04T04:21:46.624Z,4.10
2023-03-04T04:24:14.189Z,4.10
2023-03-04T04:26:41.390Z,4.00
2023-03-04T04:29:09.392Z,4.10
2023-03-04T04:31:36.085Z,4.10
2023-03-04T04:34:03.381Z,4.10
2023-03-04T04:36:30.054Z,4.10
2023-03-04T04:38:57.804Z,4.10
2023-03-04T04:41:35.893Z,4.10
2023-03-04T04:44:03.184Z,4.20
2023-03-04T04:46:29.991Z,4.20
2023-03-04T04:48:57.320Z,4.20
2023-03-04T04:51:24.040Z,4.30
2023-03-04T04:53:51.270Z,4.30
2023-03-04T04:56:20.518Z,4.30
2023-03-04T04:58:48.914Z,4.30
2023-03-04T05:01:16.328Z,4.20
2023-03-04T05:03:43.919Z,4.20
2023-03-04T05:06:11.848Z,4.20
2023-03-04T05:08:39.648Z,4.20
2023-03-04T05:11:07.518Z,4.20
2023-03-04T05:13:35.602Z,4.20
2023-03-04T05:16:02.653Z,4.20
2023-03-04T05:18:30.128Z,4.10
2023-03-04T05:21:02.397Z,4.10
2023-03-04T05:23:31.695Z,4.10
2023-03-04T05:25:58.327Z,4.10
2023-03-04T05:28:25.584Z,4.10
2023-03-04T05:30:52.364Z,4.10
2023-03-04T05:33:19.949Z,4.10
2023-03-04T05:35:48.626Z,4.10
2023-03-04T05:38:18.255Z,4.10
2023-03-04T05:40:45.704Z,4.10
2023-03-04T05:43:13.567Z,4.10
2023-03-04T05:45:40.901Z,4.10
2023-03-04T05:48:08.925Z,4.10
2023-03-04T05:50:35.734Z,4.10
2023-03-04T05:53:03.030Z,4.10
2023-03-04T05:55:29.964Z,4.10
2023-03-04T05:57:57.966Z,4.10
2023-03-04T06:00:25.287Z,4.10
2023-03-04T06:02:52.848Z,4.10
2023-03-04T06:05:19.880Z,4.10
2023-03-04T06:07:47.319Z,4.10
2023-03-04T06:10:16.846Z,4.20
2023-03-04T06:12:44.479Z,4.20
2023-03-04T06:15:11.651Z,4.20
2023-03-04T06:17:42.034Z,4.20
2023-03-04T06:20:10.900Z,4.20
2023-03-04T06:22:38.405Z,4.20
2023-03-04T06:25:05.914Z,4.20
2023-03-04T06:27:33.204Z,4.20
2023-03-04T06:29:59.941Z,4.20
2023-03-04T06:32:27.432Z,4.20
2023-03-04T06:34:54.104Z,4.20
2023-03-04T06:37:22.489Z,4.20
2023-03-04T06:39:49.331Z,4.10
2023-03-04T06:42:17.176Z,4.20
2023-03-04T06:44:45.027Z,4.20
2023-03-04T06:47:12.273Z,4.20
2023-03-04T06:49:38.964Z,4.20
2023-03-04T06:52:06.292Z,4.20
2023-03-04T06:54:32.937Z,4.30
2023-03-04T06:57:00.196Z,4.30
2023-03-04T06:59:26.857Z,4.30
2023-03-04T07:01:54.432Z,4.40
2023-03-04T07:04:22.674Z,4.40
2023-03-04T07:06:50.812Z,4.40
2023-03-04T07:09:18.101Z,4.40
2023-03-04T07:11:45.675Z,4.40
2023-03-04T07:14:12.289Z,4.40
2023-03-04T07:16:39.562Z,4.40
2023-03-04T07:19:06.240Z,4.50
2023-03-04T07:21:33.639Z,4.50
2023-03-04T07:24:00.277Z,4.50
2023-03-04T07:26:27.573Z,4.50
2023-03-04T07:28:54.515Z,4.50
2023-03-04T07:31:31.770Z,4.50
2023-03-04T07:34:01.455Z,4.60
2023-03-04T07:36:29.606Z,4.60
2023-03-04T07:38:56.606Z,4.60
2023-03-04T07:41:25.883Z,4.60
2023-03-04T07:43:52.742Z,4.60
2023-03-04T07:46:20.378Z,4.60
2023-03-04T07:48:46.987Z,4.60
2023-03-04T07:51:17.160Z,4.70
2023-03-04T07:53:46.485Z,4.70
2023-03-04T07:56:18.720Z,4.70
2023-03-04T07:58:45.984Z,4.70
2023-03-04T08:01:19.080Z,4.70
2023-03-04T08:03:45.762Z,4.80
2023-03-04T08:06:16.474Z,4.80
2023-03-04T08:08:43.734Z,4.80
2023-03-04T08:11:16.861Z,4.90
2023-03-04T08:13:43.780Z,5.00
2023-03-04T08:16:15.803Z,5.10
2023-03-04T08:18:43.839Z,5.40
2023-03-04T08:21:15.876Z,5.60
2023-03-04T08:23:42.610Z,5.70
2023-03-04T08:26:16.214Z,5.80
2023-03-04T08:28:43.553Z,5.90
2023-03-04T08:31:10.930Z,5.90
2023-03-04T08:33:37.621Z,5.80
2023-03-04T08:36:05.331Z,5.80
2023-03-04T08:38:32.125Z,6.00
2023-03-04T08:40:59.476Z,6.10
2023-03-04T08:43:26.907Z,6.50
2023-03-04T08:45:54.922Z,7.10
2023-03-04T08:48:22.204Z,7.20
2023-03-04T08:50:50.326Z,7.60
2023-03-04T08:53:18.447Z,7.90
2023-03-04T08:55:46.900Z,8.20
2023-03-04T08:58:13.866Z,8.50
2023-03-04T09:00:43.791Z,9.00
2023-03-04T09:03:12.888Z,9.20
2023-03-04T09:05:39.741Z,9.30
2023-03-04T09:08:07.489Z,9.20
2023-03-04T09:10:34.152Z,8.80
2023-03-04T09:13:01.926Z,8.50
2023-03-04T09:15:28.967Z,8.20
2023-03-04T09:17:56.280Z,8.00
2023-03-04T09:20:23.091Z,7.70
2023-03-04T09:22:50.509Z,7.50
2023-03-04T09:25:17.169Z,7.50
2023-03-04T09:27:44.253Z,7.60
2023-03-04T09:30:11.772Z,7.60
2023-03-04T09:32:39.830Z,7.90
2023-03-04T09:35:07.469Z,8.40
2023-03-04T09:37:34.674Z,8.50
2023-03-04T09:40:01.660Z,8.50
2023-03-04T09:42:35.313Z,8.40
2023-03-04T09:45:03.721Z,8.00
2023-03-04T09:47:34.122Z,7.80
2023-03-04T09:50:04.362Z,7.60
2023-03-04T09:52:46.350Z,7.40
2023-03-04T09:55:25.278Z,7.30
2023-03-04T09:57:59.215Z,7.10
2023-03-04T10:00:51.554Z,7.10
2023-03-04T10:04:14.062Z,7.10
2023-03-04T10:06:42.763Z,7.40
2023-03-04T10:09:16.751Z,7.80
2023-03-04T10:11:53.005Z,8.10
2023-03-04T10:14:22.665Z,8.10
2023-03-04T10:16:54.148Z,8.20
2023-03-04T10:19:48.873Z,8.60
2023-03-04T10:22:34.859Z,8.80
2023-03-04T10:25:15.081Z,8.70
2023-03-04T10:27:43.719Z,8.40
2023-03-04T10:30:38.132Z,8.00
2023-03-04T10:33:16.944Z,7.70
2023-03-04T10:35:48.073Z,7.50
2023-03-04T10:38:16.265Z,7.50
2023-03-04T10:40:45.882Z,7.40
2023-03-04T10:43:17.963Z,7.50
2023-03-04T10:45:46.288Z,7.50
2023-03-04T10:48:21.216Z,7.80
2023-03-04T10:50:48.570Z,8.10
2023-03-04T10:53:36.628Z,8.30
2023-03-04T10:56:04.260Z,8.50
2023-03-04T10:58:30.888Z,8.60
2023-03-04T11:01:06.740Z,8.80
2023-03-04T11:03:36.009Z,8.80
2023-03-04T11:06:23.349Z,8.80
2023-03-04T11:08:58.002Z,8.70
2023-03-04T11:11:39.026Z,8.80
2023-03-04T11:14:33.540Z,8.70
2023-03-04T11:17:03.938Z,8.60
2023-03-04T11:19:39.643Z,8.40
2023-03-04T11:22:07.230Z,8.10
2023-03-04T11:24:36.810Z,7.90
2023-03-04T11:27:13.266Z,7.70
2023-03-04T11:29:52.153Z,7.70
2023-03-04T11:32:27.769Z,7.60
2023-03-04T11:35:08.063Z,7.70
2023-03-04T11:37:50.944Z,7.80
2023-03-04T11:40:38.851Z,7.80
2023-03-04T11:43:18.835Z,7.90
2023-03-04T11:46:11.308Z,8.10
2023-03-04T11:48:57.524Z,8.20
2023-03-04T11:51:47.591Z,8.30
2023-03-04T11:54:29.917Z,8.50
2023-03-04T11:57:02.850Z,8.80
2023-03-04T11:59:33.004Z,9.10
2023-03-04T12:02:12.044Z,9.10
2023-03-04T12:04:57.212Z,9.10
2023-03-04T12:08:01.834Z,9.00
2023-03-04T12:10:37.066Z,8.80
2023-03-04T12:13:31.000Z,8.60
2023-03-04T12:16:04.224Z,8.30
2023-03-04T12:18:35.314Z,8.20
2023-03-04T12:21:26.665Z,8.20
2023-03-04T12:24:27.006Z,8.30
2023-03-04T12:27:38.047Z,8.30
2023-03-04T12:30:44.807Z,8.30
2023-03-04T12:33:43.403Z,8.30
2023-03-04T12:36:32.401Z,8.30
2023-03-04T12:39:12.177Z,8.20
2023-03-04T12:42:01.367Z,8.20
2023-03-04T12:44:35.595Z,8.20
2023-03-04T12:47:17.554Z,8.30
2023-03-04T12:50:13.627Z,8.50
2023-03-04T12:53:04.085Z,8.70
2023-03-04T12:55:44.272Z,8.80
2023-03-04T12:58:18.486Z,8.80
2023-03-04T13:01:12.842Z,8.70
2023-03-04T13:03:53.745Z,8.50
2023-03-04T13:07:01.925Z,8.30
2023-03-04T13:09:37.542Z,8.20
2023-03-04T13:12:24.632Z,8.20
2023-03-04T13:15:09.942Z,8.20
2023-03-04T13:17:36.543Z,8.30
2023-03-04T13:20:21.970Z,8.50
2023-03-04T13:22:53.970Z,8.70
2023-03-04T13:25:46.715Z,8.70
2023-03-04T13:28:19.043Z,8.60
2023-03-04T13:30:52.096Z,8.50
2023-03-04T13:33:21.440Z,8.40
2023-03-04T13:36:06.502Z,8.20
2023-03-04T13:38:37.098Z,8.20
2023-03-04T13:41:27.517Z,8.10
2023-03-04T13:44:56.578Z,8.00
2023-03-04T13:47:33.640Z,8.00
2023-03-04T13:50:24.385Z,8.10
2023-03-04T13:52:51.612Z,8.20
2023-03-04T13:55:33.488Z,8.30
2023-03-04T13:58:00.705Z,8.40
2023-03-04T14:00:28.701Z,8.50
2023-03-04T14:02:55.583Z,8.40
2023-03-04T14:05:22.266Z,8.40
2023-03-04T14:07:49.247Z,8.20
2023-03-04T14:10:24.760Z,8.10
2023-03-04T14:12:56.011Z,8.00
2023-03-04T14:15:27.609Z,7.90
2023-03-04T14:18:00.215Z,7.80
2023-03-04T14:20:30.219Z,7.80
2023-03-04T14:22:58.757Z,7.70
2023-03-04T14:25:36.556Z,7.60
2023-03-04T14:28:13.369Z,7.60
2023-03-04T14:30:51.023Z,7.60
2023-03-04T14:33:27.056Z,7.60
2023-03-04T14:35:56.169Z,7.60
2023-03-04T14:38:35.056Z,7.60
2023-03-04T14:41:07.673Z,7.50
2023-03-04T14:43:40.724Z,7.50
2023-03-04T14:46:13.497Z,7.50
2023-03-04T14:48:52.073Z,7.50
2023-03-04T14:51:39.092Z,7.50
2023-03-04T14:54:06.727Z,7.50
2023-03-04T14:56:36.745Z,7.60
2023-03-04T14:59:03.613Z,7.60
2023-03-04T15:01:35.257Z,7.60
2023-03-04T15:04:05.620Z,7.60
2023-03-04T15:06:34.668Z,7.60
2023-03-04T15:09:19.228Z,7.60
2023-03-04T15:11:51.758Z,7.60
2023-03-04T15:14:49.132Z,7.50
2023-03-04T15:17:38.574Z,7.60
2023-03-04T15:20:10.960Z,7.60
2023-03-04T15:22:41.264Z,7.50
2023-03-04T15:25:12.397Z,7.50
2023-03-04T15:27:39.425Z,7.40
2023-03-04T15:30:07.891Z,7.30
2023-03-04T15:32:34.531Z,7.20
2023-03-04T15:35:01.659Z,7.20
2023-03-04T15:37:29.788Z,7.10
2023-03-04T15:39:58.806Z,7.10
2023-03-04T15:42:25.545Z,7.00
2023-03-04T15:44:52.782Z,7.00
2023-03-04T15:47:19.742Z,6.90
2023-03-04T15:49:47.422Z,6.80
2023-03-04T15:52:18.128Z,6.80
2023-03-04T15:54:46.086Z,6.80
2023-03-04T15:57:24.055Z,6.70
2023-03-04T15:59:52.007Z,6.70
2023-03-04T16:02:24.060Z,6.80
2023-03-04T16:04:51.037Z,6.80
2023-03-04T16:07:20.545Z,6.80
2023-03-04T16:09:55.667Z,6.80
2023-03-04T16:12:23.843Z,6.80
2023-03-04T16:14:51.154Z,6.80
2023-03-04T16:17:17.897Z,6.80
2023-03-04T16:19:45.171Z,6.70
2023-03-04T16:22:24.035Z,6.70
2023-03-04T16:24:52.373Z,6.70
2023-03-04T16:27:19.872Z,6.70
2023-03-04T16:29:47.111Z,6.60
2023-03-04T16:32:13.744Z,6.60
2023-03-04T16:34:40.839Z,6.60
2023-03-04T16:37:14.763Z,6.60
2023-03-04T16:39:45.822Z,6.60
2023-03-04T16:42:18.880Z,6.60
2023-03-04T16:44:46.397Z,6.50
2023-03-04T16:47:13.107Z,6.50
2023-03-04T16:49:40.884Z,6.50
2023-03-04T16:52:14.647Z,6.50
2023-03-04T16:54:42.002Z,6.50
2023-03-04T16:57:10.900Z,6.50
2023-03-04T16:59:39.305Z,6.50
2023-03-04T17:02:20.804Z,6.50
2023-03-04T17:04:50.182Z,6.40
2023-03-04T17:07:17.238Z,6.40
2023-03-04T17:09:44.381Z,6.40
2023-03-04T17:12:12.399Z,6.40
2023-03-04T17:14:40.005Z,6.40
2023-03-04T17:17:07.384Z,6.30
2023-03-04T17:19:34.668Z,6.30
2023-03-04T17:22:01.837Z,6.30
2023-03-04T17:24:29.622Z,6.30
2023-03-04T17:26:56.398Z,6.30
2023-03-04T17:29:23.898Z,6.30
2023-03-04T17:31:50.541Z,6.30
2023-03-04T17:34:18.397Z,6.30
2023-03-04T17:36:45.005Z,6.30
2023-03-04T17:39:12.539Z,6.30
2023-03-04T17:41:39.201Z,6.20
2023-03-04T17:44:06.300Z,6.20
2023-03-04T17:46:33.405Z,6.20
2023-03-04T17:49:00.486Z,6.20
2023-03-04T17:51:32.757Z,6.10
2023-03-04T17:54:01.672Z,6.10
2023-03-04T17:56:32.679Z,6.10
2023-03-04T17:59:01.596Z,6.10
2023-03-04T18:01:28.349Z,6.10
2023-03-04T18:03:55.762Z,6.00
2023-03-04T18:06:24.078Z,6.00
2023-03-04T18:08:54.561Z,6.00
2023-03-04T18:11:23.280Z,6.00
2023-03-04T18:13:50.688Z,6.00
2023-03-04T18:16:23.117Z,6.10
2023-03-04T18:18:50.937Z,6.00
2023-03-04T18:21:19.057Z,6.00
2023-03-04T18:23:46.173Z,6.00
2023-03-04T18:26:13.098Z,6.00
2023-03-04T18:28:40.378Z,6.00
2023-03-04T18:31:07.205Z,6.00
2023-03-04T18:33:34.321Z,6.00
2023-03-04T18:36:06.078Z,6.00
2023-03-04T18:38:33.743Z,6.00
2023-03-04T18:41:03.103Z,5.90
2023-03-04T18:43:30.370Z,5.90
2023-03-04T18:46:20.835Z,5.90
2023-03-04T18:48:52.745Z,5.90
2023-03-04T18:51:31.186Z,5.90
2023-03-04T18:53:58.998Z,5.90
2023-03-04T18:56:38.377Z,5.90
2023-03-04T18:59:24.250Z,5.80
2023-03-04T19:01:53.360Z,5.80
2023-03-04T19:04:22.947Z,5.80
2023-03-04T19:06:50.302Z,5.80
2023-03-04T19:09:17.038Z,5.80
2023-03-04T19:11:44.308Z,5.80
2023-03-04T19:14:11.701Z,5.80
2023-03-04T19:16:40.236Z,5.80
2023-03-04T19:19:06.973Z,5.80
2023-03-04T19:21:38.424Z,5.80
2023-03-04T19:24:06.156Z,5.70
2023-03-04T19:26:33.919Z,5.70
2023-03-04T19:29:00.849Z,5.70
2023-03-04T19:31:28.180Z,5.70
2023-03-04T19:33:54.796Z,5.70
2023-03-04T19:36:23.327Z,5.60
2023-03-04T19:38:49.946Z,5.60
2023-03-04T19:41:18.076Z,5.60
2023-03-04T19:43:45.889Z,5.60
2023-03-04T19:46:12.891Z,5.70
2023-03-04T19:48:40.412Z,5.60
2023-03-04T19:51:19.178Z,5.60
2023-03-04T19:53:46.368Z,5.60
2023-03-04T19:56:13.840Z,5.60
2023-03-04T19:58:40.777Z,5.50
2023-03-04T20:01:18.980Z,5.50
2023-03-04T20:03:45.678Z,5.50
2023-03-04T20:06:12.292Z,5.50
2023-03-04T20:08:38.861Z,5.50
2023-03-04T20:11:13.371Z,5.50
2023-03-04T20:13:39.998Z,5.50
2023-03-04T20:16:08.580Z,5.50
2023-03-04T20:18:35.201Z,5.50
2023-03-04T20:21:02.785Z,5.40
2023-03-04T20:23:29.666Z,5.40
2023-03-04T20:25:57.041Z,5.40
2023-03-04T20:28:25.226Z,5.30
2023-03-04T20:30:53.443Z,5.30
2023-03-04T20:33:20.616Z,5.30
2023-03-04T20:35:47.854Z,5.30
2023-03-04T20:38:14.931Z,5.30
2023-03-04T20:40:42.622Z,5.20
2023-03-04T20:43:09.246Z,5.20
2023-03-04T20:45:37.156Z,5.20
2023-03-04T20:48:04.764Z,5.20
2023-03-04T20:50:31.410Z,5.20
2023-03-04T20:52:58.626Z,5.20
2023-03-04T20:55:27.879Z,5.20
2023-03-04T20:57:55.200Z,5.10
2023-03-04T21:00:22.061Z,5.10
2023-03-04T21:02:48.981Z,5.10
2023-03-04T21:05:15.680Z,5.00
2023-03-04T21:07:43.402Z,5.00
2023-03-04T21:10:10.423Z,5.00
2023-03-04T21:12:37.318Z,5.00
2023-03-04T21:15:04.840Z,4.90
2023-03-04T21:17:31.816Z,4.90
2023-03-04T21:19:58.434Z,4.90
2023-03-04T21:22:27.118Z,4.80
2023-03-04T21:24:53.988Z,4.80
2023-03-04T21:27:21.356Z,4.70
2023-03-04T21:29:49.352Z,4.70
2023-03-04T21:32:25.052Z,4.70
2023-03-04T21:34:53.800Z,4.70
2023-03-04T21:37:23.925Z,4.70
2023-03-04T21:39:50.897Z,4.70
2023-03-04T21:42:18.365Z,4.70
2023-03-04T21:44:50.169Z,4.70
2023-03-04T21:47:22.200Z,4.70
2023-03-04T21:49:49.067Z,4.60
2023-03-04T21:52:20.815Z,4.60
2023-03-04T21:54:47.941Z,4.60
2023-03-04T21:57:15.546Z,4.60
2023-03-04T21:59:42.310Z,4.60
2023-03-04T22:02:18.412Z,4.50
2023-03-04T22:04:45.402Z,4.60
2023-03-04T22:07:13.382Z,4.50
2023-03-04T22:09:40.176Z,4.50
2023-03-04T22:12:07.550Z,4.50
2023-03-04T22:14:34.181Z,4.50
2023-03-04T22:17:01.526Z,4.50
2023-03-04T22:19:31.373Z,4.50
2023-03-04T22:21:59.458Z,4.50
2023-03-04T22:24:26.221Z,4.50
2023-03-04T22:26:53.718Z,4.50
2023-03-04T22:29:20.340Z,4.50
2023-03-04T22:31:48.155Z,4.50
2023-03-04T22:34:16.392Z,4.40
2023-03-04T22:36:45.693Z,4.40
2023-03-04T22:39:15.198Z,4.40
2023-03-04T22:41:42.395Z,4.40
2023-03-04T22:44:09.114Z,4.40
2023-03-04T22:46:38.449Z,4.40
2023-03-04T22:49:10.890Z,4.40
2023-03-04T22:51:41.250Z,4.40
2023-03-04T22:54:10.306Z,4.40
2023-03-04T22:56:39.360Z,4.40
2023-03-04T22:59:06.552Z,4.40
2023-03-04T23:01:34.185Z,4.40
2023-03-04T23:04:01.270Z,4.40
2023-03-04T23:06:30.438Z,4.30
2023-03-04T23:08:58.869Z,4.30
2023-03-04T23:11:29.264Z,4.30
2023-03-04T23:13:56.914Z,4.30
2023-03-04T23:16:25.043Z,4.30
2023-03-04T23:18:53.423Z,4.30
2023-03-04T23:21:22.805Z,4.30
2023-03-04T23:23:51.175Z,4.30
2023-03-04T23:26:21.784Z,4.30
2023-03-04T23:28:49.168Z,4.30
2023-03-04T23:31:16.374Z,4.30
2023-03-04T23:33:44.692Z,4.20
2023-03-04T23:36:15.304Z,4.20
2023-03-04T23:38:44.125Z,4.20
2023-03-04T23:41:23.298Z,4.10
2023-03-04T23:43:52.296Z,4.20
2023-03-04T23:46:19.707Z,4.20
2023-03-04T23:48:46.920Z,4.10
2023-03-04T23:51:16.772Z,4.10
2023-03-04T23:53:43.489Z,4.10
2023-03-04T23:56:19.053Z,4.10
2023-03-04T23:58:46.794Z,4.10
